Time;durP1;ratioP1;P1;durP2;ratioP2;P2;SDS_P1;SDS_P2;PMS_P1;PMS_P2;Temp;Humidity;BMP_temperature;BMP_pressure;BME280_temperature;BME280_humidity;BME280_pressure;Samples;Min_cycle;Max_cycle;Signal;HPM_P1;HPM_P2
2023/10/08 00:02:52;;;;;;;7.20;3.38;;;;;;;;;;5127916;27;42027;-72
2023/10/08 00:05:21;;;;;;;6.00;3.08;;;;;;;;;;5128494;27;40351;-71
2023/10/08 00:07:50;;;;;;;5.07;3.33;;;;;;;;;;5128819;27;41546;-72
2023/10/08 00:10:18;;;;;;;6.60;3.63;;;;;;;;;;5127804;27;43141;-71
2023/10/08 00:12:50;;;;;;;8.27;3.67;;;;;;;;;;5127196;27;39678;-72
2023/10/08 00:15:18;;;;;;;11.50;3.92;;;;;;;;;;5126601;27;40786;-71
2023/10/08 00:17:49;;;;;;;6.30;3.38;;;;;;;;;;5120561;27;43084;-72
2023/10/08 00:20:25;;;;;;;8.82;3.67;;;;;;;;;;5116890;27;39910;-71
2023/10/08 00:22:55;;;;;;;4.50;2.97;;;;;;;;;;5125209;27;41869;-71
2023/10/08 00:25:25;;;;;;;6.00;3.60;;;;;;;;;;5128322;27;40221;-72
2023/10/08 00:27:54;;;;;;;5.95;3.42;;;;;;;;;;5127903;27;42530;-72
2023/10/08 00:30:22;;;;;;;5.63;3.17;;;;;;;;;;5125676;27;43091;-71
2023/10/08 00:32:51;;;;;;;8.88;3.80;;;;;;;;;;5127651;27;40944;-71
2023/10/08 00:35:20;;;;;;;8.30;3.58;;;;;;;;;;5128563;27;41451;-72
2023/10/08 00:37:49;;;;;;;5.00;3.30;;;;;;;;;;5127915;27;42331;-72
2023/10/08 00:40:21;;;;;;;5.68;3.13;;;;;;;;;;5128396;27;40269;-72
2023/10/08 00:42:56;;;;;;;5.65;2.97;;;;;;;;;;5128708;27;42675;-72
2023/10/08 00:45:30;;;;;;;7.00;4.03;;;;;;;;;;5129552;27;39917;-71
2023/10/08 00:47:58;;;;;;;8.88;3.80;;;;;;;;;;5128756;27;41656;-72
2023/10/08 00:50:42;;;;;;;7.00;2.90;;;;;;;;;;5131896;27;42982;-72
2023/10/08 00:53:17;;;;;;;6.43;3.65;;;;;;;;;;5127764;27;40012;-73
2023/10/08 00:55:53;;;;;;;10.23;6.80;;;;;;;;;;5128266;27;42610;-71
2023/10/08 00:58:26;;;;;;;9.02;5.80;;;;;;;;;;5129111;27;42789;-72
2023/10/08 01:00:59;;;;;;;16.58;12.10;;;;;;;;;;5129380;27;38630;-72
2023/10/08 01:03:28;;;;;;;13.27;9.48;;;;;;;;;;5128504;27;41869;-71
2023/10/08 01:05:57;;;;;;;10.93;8.38;;;;;;;;;;5131579;27;40083;-71
2023/10/08 01:08:36;;;;;;;7.78;4.75;;;;;;;;;;5129273;27;40280;-72
2023/10/08 01:11:21;;;;;;;5.57;4.25;;;;;;;;;;5128458;27;42339;-72
2023/10/08 01:13:49;;;;;;;7.75;3.33;;;;;;;;;;5113627;27;39072;-72
2023/10/08 01:16:19;;;;;;;7.47;3.80;;;;;;;;;;5124251;27;42651;-72
2023/10/08 01:18:50;;;;;;;5.70;4.07;;;;;;;;;;5130825;27;42439;-72
2023/10/08 01:21:33;;;;;;;5.78;3.45;;;;;;;;;;5132006;27;40780;-72
2023/10/08 01:24:06;;;;;;;5.70;3.40;;;;;;;;;;5119804;27;41033;-72
2023/10/08 01:26:38;;;;;;;9.23;4.05;;;;;;;;;;5131496;27;41971;-72
2023/10/08 01:29:11;;;;;;;5.63;3.50;;;;;;;;;;5117169;27;41391;-72
2023/10/08 01:31:40;;;;;;;6.30;3.30;;;;;;;;;;5129015;27;41693;-72
2023/10/08 01:34:08;;;;;;;4.97;3.28;;;;;;;;;;5130750;27;40244;-72
2023/10/08 01:36:36;;;;;;;5.93;3.30;;;;;;;;;;5130925;27;41519;-72
2023/10/08 01:39:06;;;;;;;6.55;3.60;;;;;;;;;;5130465;27;43025;-72
2023/10/08 01:41:40;;;;;;;7.25;3.60;;;;;;;;;;5128206;27;40093;-71
2023/10/08 01:44:08;;;;;;;6.15;3.17;;;;;;;;;;5127636;27;41964;-72
2023/10/08 01:46:40;;;;;;;7.07;3.50;;;;;;;;;;5131408;27;43326;-71
2023/10/08 01:49:14;;;;;;;8.15;3.72;;;;;;;;;;5128991;27;41278;-72
2023/10/08 01:51:46;;;;;;;5.72;3.25;;;;;;;;;;5107705;27;42793;-71
2023/10/08 01:54:17;;;;;;;4.95;3.08;;;;;;;;;;5127349;27;41393;-72
2023/10/08 01:56:46;;;;;;;7.53;3.50;;;;;;;;;;5128554;27;41784;-71
2023/10/08 01:59:15;;;;;;;7.15;3.00;;;;;;;;;;5131443;27;41711;-71
2023/10/08 02:01:45;;;;;;;4.82;2.80;;;;;;;;;;5129820;27;40152;-71
2023/10/08 02:04:16;;;;;;;8.77;3.40;;;;;;;;;;5130247;27;41525;-72
2023/10/08 02:06:45;;;;;;;4.80;2.88;;;;;;;;;;5127889;27;41713;-72
2023/10/08 02:09:15;;;;;;;7.47;3.55;;;;;;;;;;5131287;27;40453;-71
2023/10/08 02:11:49;;;;;;;5.57;3.13;;;;;;;;;;5127900;27;41547;-72
2023/10/08 02:14:18;;;;;;;4.97;2.70;;;;;;;;;;5130759;27;42296;-72
2023/10/08 02:16:46;;;;;;;4.57;2.80;;;;;;;;;;5129382;27;41830;-71
2023/10/08 02:19:18;;;;;;;5.28;3.35;;;;;;;;;;5127110;27;43001;-71
2023/10/08 02:21:46;;;;;;;5.90;3.78;;;;;;;;;;5127595;27;41339;-72
2023/10/08 02:24:14;;;;;;;5.47;3.58;;;;;;;;;;5131129;27;41258;-72
2023/10/08 02:26:43;;;;;;;5.38;3.58;;;;;;;;;;5128185;27;40577;-71
2023/10/08 02:29:13;;;;;;;4.00;2.63;;;;;;;;;;5128658;27;40222;-71
2023/10/08 02:31:41;;;;;;;4.93;2.70;;;;;;;;;;5130819;27;41766;-72
2023/10/08 02:34:10;;;;;;;4.65;2.78;;;;;;;;;;5127853;27;40963;-72
2023/10/08 02:36:38;;;;;;;5.47;3.50;;;;;;;;;;5130137;27;41916;-72
2023/10/08 02:39:13;;;;;;;5.32;2.95;;;;;;;;;;5129715;27;41929;-71
2023/10/08 02:41:42;;;;;;;5.85;2.80;;;;;;;;;;5119948;27;39741;-72
2023/10/08 02:44:11;;;;;;;5.97;3.03;;;;;;;;;;5130230;27;42603;-72
2023/10/08 02:46:41;;;;;;;7.63;2.97;;;;;;;;;;5129426;27;42880;-72
2023/10/08 02:49:11;;;;;;;5.40;3.00;;;;;;;;;;5129841;27;40465;-71
2023/10/08 02:51:40;;;;;;;7.28;3.40;;;;;;;;;;5128492;27;40035;-72
2023/10/08 02:54:16;;;;;;;5.20;2.95;;;;;;;;;;5127516;27;41592;-72
2023/10/08 02:56:45;;;;;;;5.68;3.03;;;;;;;;;;5126934;27;40790;-72
2023/10/08 02:59:14;;;;;;;4.82;2.90;;;;;;;;;;5127889;27;40405;-71
2023/10/08 03:01:44;;;;;;;4.28;2.65;;;;;;;;;;5126948;27;38871;-72
2023/10/08 03:04:22;;;;;;;4.50;2.40;;;;;;;;;;5127851;27;39817;-71
2023/10/08 03:06:51;;;;;;;5.55;3.08;;;;;;;;;;5127871;27;40944;-72
2023/10/08 03:09:20;;;;;;;4.57;2.97;;;;;;;;;;5126990;27;38933;-71
2023/10/08 03:11:49;;;;;;;5.57;3.25;;;;;;;;;;5127898;27;41229;-72
2023/10/08 03:14:22;;;;;;;5.03;2.80;;;;;;;;;;5129455;27;42202;-72
2023/10/08 03:16:52;;;;;;;4.15;2.75;;;;;;;;;;5128333;27;40383;-72
2023/10/08 03:19:22;;;;;;;4.90;3.00;;;;;;;;;;5128475;27;40555;-71
2023/10/08 03:21:51;;;;;;;4.47;2.65;;;;;;;;;;5121931;27;40311;-71
2023/10/08 03:24:37;;;;;;;5.05;2.60;;;;;;;;;;5128242;27;41427;-72
2023/10/08 03:27:12;;;;;;;4.95;2.60;;;;;;;;;;5127588;27;41984;-72
2023/10/08 03:29:41;;;;;;;6.95;2.70;;;;;;;;;;5126984;27;41136;-72
2023/10/08 03:32:15;;;;;;;3.47;2.10;;;;;;;;;;5127761;27;41084;-72
2023/10/08 03:34:46;;;;;;;4.47;2.65;;;;;;;;;;5113954;27;41375;-71
2023/10/08 03:37:19;;;;;;;4.85;2.70;;;;;;;;;;5128753;27;40406;-72
2023/10/08 03:40:00;;;;;;;4.38;2.05;;;;;;;;;;5126414;27;41639;-71
2023/10/08 03:42:39;;;;;;;4.45;2.67;;;;;;;;;;5125599;27;40935;-72
2023/10/08 03:45:11;;;;;;;3.53;2.33;;;;;;;;;;5126125;27;41484;-72
2023/10/08 03:47:46;;;;;;;3.80;2.25;;;;;;;;;;5127360;27;41992;-72
2023/10/08 03:50:17;;;;;;;3.72;2.17;;;;;;;;;;5125437;27;40326;-72
2023/10/08 03:52:47;;;;;;;3.22;1.98;;;;;;;;;;5125937;27;41462;-72
2023/10/08 03:55:21;;;;;;;5.03;2.40;;;;;;;;;;5129791;27;43125;-72
2023/10/08 03:57:56;;;;;;;4.00;2.05;;;;;;;;;;5128441;27;41341;-71
2023/10/08 04:00:31;;;;;;;3.63;2.20;;;;;;;;;;5127118;27;41572;-72
2023/10/08 04:03:07;;;;;;;2.67;2.03;;;;;;;;;;5127581;27;41818;-72
2023/10/08 04:05:44;;;;;;;2.55;1.90;;;;;;;;;;5125102;27;42384;-71
2023/10/08 04:08:24;;;;;;;1.75;1.40;;;;;;;;;;5129392;27;43144;-72
2023/10/08 04:11:27;;;;;;;3.10;1.80;;;;;;;;;;5125188;27;41314;-72
2023/10/08 04:13:59;;;;;;;3.63;1.77;;;;;;;;;;5122889;27;41462;-71
2023/10/08 04:16:27;;;;;;;3.22;1.83;;;;;;;;;;5125122;27;42007;-72
2023/10/08 04:18:57;;;;;;;2.75;1.50;;;;;;;;;;5127933;27;40193;-71
2023/10/08 04:21:27;;;;;;;2.97;1.80;;;;;;;;;;5129270;27;41396;-72
2023/10/08 04:23:57;;;;;;;3.25;2.08;;;;;;;;;;5129641;27;41538;-72
2023/10/08 04:26:25;;;;;;;3.53;1.48;;;;;;;;;;5128262;27;41454;-71
2023/10/08 04:28:57;;;;;;;2.60;1.52;;;;;;;;;;5128183;27;43142;-72
2023/10/08 04:31:27;;;;;;;1.70;1.40;;;;;;;;;;5125117;27;40340;-72
2023/10/08 04:34:00;;;;;;;3.10;1.67;;;;;;;;;;5127883;27;40267;-71
2023/10/08 04:36:28;;;;;;;2.10;1.60;;;;;;;;;;5125539;27;41923;-72
2023/10/08 04:39:04;;;;;;;1.73;1.40;;;;;;;;;;5113590;27;40320;-71
2023/10/08 04:41:33;;;;;;;2.40;1.45;;;;;;;;;;5125336;27;41688;-71
2023/10/08 04:44:08;;;;;;;2.53;1.60;;;;;;;;;;5127712;27;41887;-72
2023/10/08 04:46:46;;;;;;;2.60;1.52;;;;;;;;;;5127319;27;42160;-71
2023/10/08 04:49:27;;;;;;;3.17;1.35;;;;;;;;;;5128885;27;41567;-72
2023/10/08 04:51:57;;;;;;;2.00;1.23;;;;;;;;;;5126719;27;39283;-72
2023/10/08 04:54:29;;;;;;;3.33;1.27;;;;;;;;;;5127639;27;41983;-72
2023/10/08 04:56:59;;;;;;;2.30;1.40;;;;;;;;;;5125496;27;40788;-71
2023/10/08 04:59:32;;;;;;;2.10;1.20;;;;;;;;;;5123105;27;40054;-71
2023/10/08 05:02:19;;;;;;;1.70;1.13;;;;;;;;;;5125773;27;42756;-72
2023/10/08 05:05:21;;;;;;;1.80;1.15;;;;;;;;;;5124593;27;43167;-71
2023/10/08 05:13:30;;;;;;;2.78;1.13;;;;;;;;;;5116358;27;30893;-71
2023/10/08 05:16:19;;;;;;;1.48;1.02;;;;;;;;;;5127015;27;41183;-72
2023/10/08 05:21:50;;;;;;;2.92;1.10;;;;;;;;;;5120995;27;41371;-71
2023/10/08 05:24:27;;;;;;;2.80;1.08;;;;;;;;;;5127641;27;41650;-72
2023/10/08 05:27:26;;;;;;;2.45;1.00;;;;;;;;;;5124066;27;41856;-71
2023/10/08 05:30:15;;;;;;;1.80;1.02;;;;;;;;;;5129961;27;40301;-72
2023/10/08 05:33:06;;;;;;;1.98;0.90;;;;;;;;;;5129753;27;40151;-71
2023/10/08 05:35:49;;;;;;;1.95;1.30;;;;;;;;;;5126236;27;41633;-71
2023/10/08 05:41:16;;;;;;;1.10;0.98;;;;;;;;;;5131404;27;42925;-71
2023/10/08 05:44:13;;;;;;;1.67;1.00;;;;;;;;;;5130251;27;40029;-72
2023/10/08 05:46:49;;;;;;;1.42;1.05;;;;;;;;;;5127774;27;42635;-71
2023/10/08 05:52:24;;;;;;;1.90;1.17;;;;;;;;;;5117038;27;41148;-71
2023/10/08 05:55:22;;;;;;;1.23;0.77;;;;;;;;;;5129304;27;42573;-71
2023/10/08 05:58:02;;;;;;;1.02;0.80;;;;;;;;;;5127882;27;40121;-71
2023/10/08 06:00:46;;;;;;;2.08;1.13;;;;;;;;;;5123517;27;40063;-72
2023/10/08 06:11:41;;;;;;;0.98;0.73;;;;;;;;;;5100540;27;41560;-72
2023/10/08 06:14:16;;;;;;;1.80;0.88;;;;;;;;;;5124201;27;40679;-71
2023/10/08 06:16:44;;;;;;;1.38;0.90;;;;;;;;;;5118009;27;42500;-72
2023/10/08 06:19:12;;;;;;;2.58;1.00;;;;;;;;;;5125033;27;42500;-72
2023/10/08 06:21:41;;;;;;;1.27;0.80;;;;;;;;;;5124406;27;40816;-71
2023/10/08 06:24:09;;;;;;;1.23;0.90;;;;;;;;;;5128736;27;40788;-71
2023/10/08 06:26:42;;;;;;;1.55;0.93;;;;;;;;;;5130228;27;41366;-72
2023/10/08 06:29:26;;;;;;;1.80;0.90;;;;;;;;;;5129133;27;41326;-71
2023/10/08 06:31:55;;;;;;;0.80;0.70;;;;;;;;;;5117724;27;42242;-71
2023/10/08 06:34:27;;;;;;;1.15;0.95;;;;;;;;;;5120714;27;41639;-72
2023/10/08 06:36:57;;;;;;;1.40;1.00;;;;;;;;;;5127942;27;42511;-71
2023/10/08 06:39:33;;;;;;;1.00;0.80;;;;;;;;;;5129428;27;42773;-71
2023/10/08 06:42:02;;;;;;;1.20;0.82;;;;;;;;;;5127274;27;41352;-71
2023/10/08 06:44:37;;;;;;;1.40;0.80;;;;;;;;;;5146350;27;39818;-71
2023/10/08 06:47:09;;;;;;;1.02;0.93;;;;;;;;;;5130225;27;41682;-71
2023/10/08 06:49:38;;;;;;;1.15;1.05;;;;;;;;;;5129584;27;41347;-71
2023/10/08 06:52:10;;;;;;;1.00;0.80;;;;;;;;;;5129534;27;41957;-71
2023/10/08 06:54:38;;;;;;;1.35;0.77;;;;;;;;;;5128765;27;39786;-71
2023/10/08 06:57:13;;;;;;;1.33;1.10;;;;;;;;;;5130019;27;42461;-71
2023/10/08 06:59:42;;;;;;;1.00;0.90;;;;;;;;;;5126567;27;43118;-71
2023/10/08 07:02:15;;;;;;;1.83;0.90;;;;;;;;;;5129274;27;40361;-71
2023/10/08 07:04:46;;;;;;;1.00;0.80;;;;;;;;;;5128751;27;41325;-72
2023/10/08 07:07:18;;;;;;;1.10;0.70;;;;;;;;;;5126409;27;41920;-71
2023/10/08 07:09:48;;;;;;;1.25;0.90;;;;;;;;;;5127115;27;40357;-71
2023/10/08 07:12:19;;;;;;;0.65;0.57;;;;;;;;;;5129964;27;42051;-72
2023/10/08 07:14:47;;;;;;;1.13;0.88;;;;;;;;;;5128328;27;40511;-71
2023/10/08 07:17:19;;;;;;;2.70;1.08;;;;;;;;;;5130343;27;41799;-71
2023/10/08 07:19:50;;;;;;;1.00;0.80;;;;;;;;;;5127400;27;42218;-72
2023/10/08 07:22:22;;;;;;;0.73;0.70;;;;;;;;;;5126088;27;40371;-71
2023/10/08 07:24:51;;;;;;;1.27;0.82;;;;;;;;;;5128529;27;42092;-71
2023/10/08 07:27:24;;;;;;;1.38;0.98;;;;;;;;;;5129439;27;43112;-71
2023/10/08 07:29:55;;;;;;;1.48;0.95;;;;;;;;;;5129373;27;40457;-71
2023/10/08 07:32:25;;;;;;;1.17;0.98;;;;;;;;;;5126118;27;42419;-71
2023/10/08 07:35:02;;;;;;;1.00;0.90;;;;;;;;;;5128500;27;40326;-71
2023/10/08 07:37:32;;;;;;;1.77;1.10;;;;;;;;;;5125463;27;41695;-71
2023/10/08 07:40:03;;;;;;;1.92;0.95;;;;;;;;;;5118981;27;42121;-68
2023/10/08 07:42:32;;;;;;;1.15;1.02;;;;;;;;;;5120136;27;40331;-68
2023/10/08 07:45:00;;;;;;;1.42;1.25;;;;;;;;;;5125214;27;40343;-69
2023/10/08 07:47:29;;;;;;;1.02;0.82;;;;;;;;;;5128790;27;42616;-69
2023/10/08 07:49:58;;;;;;;4.00;0.82;;;;;;;;;;5126788;27;40791;-70
2023/10/08 07:52:26;;;;;;;1.98;0.80;;;;;;;;;;5126214;27;42327;-69
2023/10/08 07:54:54;;;;;;;1.13;1.00;;;;;;;;;;5128549;27;40601;-68
2023/10/08 07:57:26;;;;;;;5.32;1.20;;;;;;;;;;5120203;27;41885;-69
2023/10/08 08:00:01;;;;;;;3.22;1.00;;;;;;;;;;5125428;27;43243;-68
2023/10/08 08:02:38;;;;;;;1.40;1.05;;;;;;;;;;5128023;27;41468;-68
2023/10/08 08:05:07;;;;;;;4.82;1.25;;;;;;;;;;5128470;27;41091;-68
2023/10/08 08:07:35;;;;;;;2.95;1.35;;;;;;;;;;5127608;27;41939;-69
2023/10/08 08:10:10;;;;;;;3.70;0.77;;;;;;;;;;5127561;27;40384;-69
2023/10/08 08:12:38;;;;;;;2.53;0.85;;;;;;;;;;5127445;27;42678;-68
2023/10/08 08:15:15;;;;;;;1.92;0.82;;;;;;;;;;5120296;27;42151;-68
2023/10/08 08:17:43;;;;;;;1.80;1.10;;;;;;;;;;5122490;27;41862;-68
2023/10/08 08:20:18;;;;;;;2.17;1.33;;;;;;;;;;5128447;27;42365;-69
2023/10/08 08:22:49;;;;;;;1.77;1.00;;;;;;;;;;5126490;27;40317;-69
2023/10/08 08:25:26;;;;;;;4.07;1.40;;;;;;;;;;5127099;27;42771;-68
2023/10/08 08:27:55;;;;;;;1.60;1.27;;;;;;;;;;5120502;27;42237;-70
2023/10/08 08:30:26;;;;;;;3.75;1.40;;;;;;;;;;5125918;27;41107;-69
2023/10/08 08:32:56;;;;;;;4.88;1.00;;;;;;;;;;5119532;27;41160;-68
2023/10/08 08:35:24;;;;;;;2.50;1.20;;;;;;;;;;5116452;27;42683;-68
2023/10/08 08:37:52;;;;;;;6.45;1.25;;;;;;;;;;5118458;27;41334;-69
2023/10/08 08:40:21;;;;;;;3.03;1.30;;;;;;;;;;5128178;27;42093;-69
2023/10/08 08:42:49;;;;;;;3.58;1.10;;;;;;;;;;5117794;27;40317;-69
2023/10/08 08:45:20;;;;;;;6.57;1.50;;;;;;;;;;5123821;27;41065;-68
2023/10/08 08:47:49;;;;;;;2.58;1.50;;;;;;;;;;5126350;27;43456;-68
2023/10/08 08:50:19;;;;;;;2.78;1.52;;;;;;;;;;5128297;27;40956;-69
2023/10/08 08:52:47;;;;;;;4.18;1.30;;;;;;;;;;5126682;27;41532;-68
2023/10/08 08:55:16;;;;;;;4.70;1.17;;;;;;;;;;5122548;27;42542;-69
2023/10/08 08:57:44;;;;;;;5.13;1.35;;;;;;;;;;5127140;27;40710;-69
2023/10/08 09:00:13;;;;;;;6.15;1.52;;;;;;;;;;5122827;27;41228;-69
2023/10/08 09:02:41;;;;;;;7.20;1.23;;;;;;;;;;5125754;27;40551;-70
2023/10/08 09:05:23;;;;;;;4.13;1.20;;;;;;;;;;5131319;27;42461;-68
2023/10/08 09:07:58;;;;;;;5.78;1.15;;;;;;;;;;5129981;27;42063;-68
2023/10/08 09:10:28;;;;;;;8.07;1.55;;;;;;;;;;5128593;27;41120;-70
2023/10/08 09:12:58;;;;;;;3.30;1.25;;;;;;;;;;5120021;27;41483;-70
2023/10/08 09:15:26;;;;;;;4.07;1.10;;;;;;;;;;5131335;27;42254;-68
2023/10/08 09:17:54;;;;;;;5.13;1.50;;;;;;;;;;5128562;27;40564;-70
2023/10/08 09:20:24;;;;;;;3.50;1.00;;;;;;;;;;5137525;27;40504;-70
2023/10/08 09:23:07;;;;;;;4.53;1.20;;;;;;;;;;5123579;27;41872;-68
2023/10/08 09:25:35;;;;;;;4.72;1.20;;;;;;;;;;5128808;27;42516;-68
2023/10/08 09:28:07;;;;;;;1.73;0.98;;;;;;;;;;5127088;27;42357;-68
2023/10/08 09:30:37;;;;;;;6.72;1.58;;;;;;;;;;5127328;27;41888;-70
2023/10/08 09:33:06;;;;;;;8.30;1.40;;;;;;;;;;5125276;27;41593;-67
2023/10/08 09:35:36;;;;;;;2.90;0.82;;;;;;;;;;5122831;27;42615;-68
2023/10/08 09:38:05;;;;;;;3.85;1.08;;;;;;;;;;5130609;27;40011;-68
2023/10/08 09:40:33;;;;;;;5.82;1.15;;;;;;;;;;5130315;27;42200;-67
2023/10/08 09:43:03;;;;;;;7.38;1.08;;;;;;;;;;5130126;27;44381;-66
2023/10/08 09:45:31;;;;;;;4.55;1.20;;;;;;;;;;5126971;27;42288;-67
2023/10/08 09:47:59;;;;;;;2.38;1.02;;;;;;;;;;5128482;27;41613;-68
2023/10/08 09:50:33;;;;;;;4.35;1.00;;;;;;;;;;5125240;27;40338;-67
2023/10/08 09:53:06;;;;;;;4.93;1.55;;;;;;;;;;5130904;27;41805;-67
2023/10/08 09:55:34;;;;;;;8.52;1.60;;;;;;;;;;5126362;27;41823;-71
2023/10/08 09:58:02;;;;;;;9.48;2.30;;;;;;;;;;5129026;27;41014;-68
2023/10/08 10:00:31;;;;;;;7.30;1.20;;;;;;;;;;5131150;27;42132;-69
2023/10/08 10:03:01;;;;;;;8.95;1.30;;;;;;;;;;5121819;27;41695;-69
2023/10/08 10:05:30;;;;;;;7.47;1.63;;;;;;;;;;5116724;27;41573;-69
2023/10/08 10:07:58;;;;;;;6.93;1.40;;;;;;;;;;5118447;27;43677;-68
2023/10/08 10:10:27;;;;;;;4.65;1.55;;;;;;;;;;5117665;27;40534;-67
2023/10/08 10:12:59;;;;;;;6.68;1.35;;;;;;;;;;5123817;27;41179;-69
2023/10/08 10:15:30;;;;;;;7.00;1.35;;;;;;;;;;5119627;27;42232;-67
2023/10/08 10:17:59;;;;;;;5.97;1.20;;;;;;;;;;5121819;27;40992;-67
2023/10/08 10:20:27;;;;;;;5.95;1.67;;;;;;;;;;5130909;27;42472;-67
2023/10/08 10:22:56;;;;;;;4.40;1.30;;;;;;;;;;5130031;27;41973;-67
2023/10/08 10:25:34;;;;;;;5.82;1.48;;;;;;;;;;5124174;27;41363;-71
2023/10/08 10:28:21;;;;;;;4.78;0.98;;;;;;;;;;5127139;27;41779;-68
2023/10/08 10:30:50;;;;;;;5.05;0.75;;;;;;;;;;5129132;27;40579;-68
2023/10/08 10:33:18;;;;;;;5.80;0.88;;;;;;;;;;5129358;27;41666;-67
2023/10/08 10:35:50;;;;;;;10.52;1.38;;;;;;;;;;5121075;27;40797;-67
2023/10/08 10:38:20;;;;;;;5.30;0.98;;;;;;;;;;5129121;27;41462;-67
2023/10/08 10:40:56;;;;;;;2.55;1.05;;;;;;;;;;5129800;27;41445;-67
2023/10/08 10:43:31;;;;;;;4.25;0.82;;;;;;;;;;5126655;27;42084;-68
2023/10/08 10:46:24;;;;;;;3.08;1.08;;;;;;;;;;5125980;27;42410;-67
2023/10/08 10:49:05;;;;;;;5.30;0.70;;;;;;;;;;5126259;27;41587;-67
2023/10/08 10:51:33;;;;;;;7.65;1.00;;;;;;;;;;5126177;27;42179;-67
2023/10/08 10:54:07;;;;;;;7.43;1.10;;;;;;;;;;5129541;27;41289;-67
2023/10/08 10:56:42;;;;;;;4.60;1.00;;;;;;;;;;5129628;27;43308;-70
2023/10/08 10:59:18;;;;;;;10.65;1.10;;;;;;;;;;5127823;27;39035;-69
2023/10/08 11:01:52;;;;;;;10.40;1.50;;;;;;;;;;5126086;27;41671;-69
2023/10/08 11:04:28;;;;;;;3.88;1.00;;;;;;;;;;5126668;27;40799;-69
2023/10/08 11:06:58;;;;;;;2.20;0.73;;;;;;;;;;5126346;27;40412;-67
2023/10/08 11:09:35;;;;;;;5.30;1.10;;;;;;;;;;5128691;27;40356;-67
2023/10/08 11:12:10;;;;;;;5.60;1.45;;;;;;;;;;5127551;27;42246;-67
2023/10/08 11:14:41;;;;;;;3.83;1.10;;;;;;;;;;5128865;27;40543;-67
2023/10/08 11:17:14;;;;;;;6.85;1.38;;;;;;;;;;5129487;27;42333;-67
2023/10/08 11:19:45;;;;;;;3.65;1.10;;;;;;;;;;5128204;27;39219;-67
2023/10/08 11:22:18;;;;;;;9.32;1.10;;;;;;;;;;5126288;27;42158;-67
2023/10/08 11:24:48;;;;;;;7.18;1.08;;;;;;;;;;5121773;27;42096;-67
2023/10/08 11:27:17;;;;;;;4.07;1.08;;;;;;;;;;5128859;27;40055;-67
2023/10/08 11:29:46;;;;;;;1.70;1.02;;;;;;;;;;5128152;27;41678;-67
2023/10/08 11:32:17;;;;;;;3.28;1.10;;;;;;;;;;5129830;27;42364;-68
2023/10/08 11:34:49;;;;;;;16.38;1.75;;;;;;;;;;5129230;27;42295;-69
2023/10/08 11:37:27;;;;;;;4.13;1.35;;;;;;;;;;5127026;27;41584;-68
2023/10/08 11:39:58;;;;;;;4.78;1.35;;;;;;;;;;5125506;27;41114;-69
2023/10/08 11:42:43;;;;;;;3.60;1.50;;;;;;;;;;5129666;27;42032;-67
2023/10/08 11:45:26;;;;;;;6.88;1.52;;;;;;;;;;5128469;27;40762;-70
2023/10/08 11:48:03;;;;;;;4.22;1.55;;;;;;;;;;5118348;27;41638;-69
2023/10/08 11:50:31;;;;;;;5.90;1.65;;;;;;;;;;5142570;27;41199;-68
2023/10/08 11:53:02;;;;;;;7.65;1.52;;;;;;;;;;5129606;27;43236;-69
2023/10/08 11:55:35;;;;;;;5.60;1.50;;;;;;;;;;5125884;27;40795;-67
2023/10/08 11:58:09;;;;;;;9.52;1.23;;;;;;;;;;5115827;27;42627;-68
2023/10/08 12:00:43;;;;;;;21.63;2.40;;;;;;;;;;5125943;27;41415;-68
2023/10/08 12:03:17;;;;;;;10.93;1.58;;;;;;;;;;5121739;27;42793;-68
2023/10/08 12:05:48;;;;;;;7.25;1.63;;;;;;;;;;5126624;27;42618;-68
2023/10/08 12:08:17;;;;;;;6.82;1.52;;;;;;;;;;5129453;27;40655;-68
2023/10/08 12:10:46;;;;;;;14.07;1.65;;;;;;;;;;5126952;27;41352;-68
2023/10/08 12:13:16;;;;;;;12.32;2.05;;;;;;;;;;5123852;27;41318;-68
2023/10/08 12:15:47;;;;;;;8.73;1.00;;;;;;;;;;5121009;27;40606;-68
2023/10/08 12:18:24;;;;;;;8.70;1.40;;;;;;;;;;5128063;27;41531;-68
2023/10/08 12:20:53;;;;;;;6.95;1.85;;;;;;;;;;5121610;27;42818;-68
2023/10/08 12:23:25;;;;;;;6.20;1.40;;;;;;;;;;5127131;27;42604;-68
2023/10/08 12:25:55;;;;;;;6.90;1.35;;;;;;;;;;5125781;27;41877;-68
2023/10/08 12:28:24;;;;;;;4.70;1.17;;;;;;;;;;5126329;27;41344;-68
2023/10/08 12:30:53;;;;;;;10.10;1.40;;;;;;;;;;5121341;27;41871;-71
2023/10/08 12:33:24;;;;;;;6.68;1.30;;;;;;;;;;5127002;27;42253;-71
2023/10/08 12:35:53;;;;;;;6.97;1.00;;;;;;;;;;5124050;27;39906;-71
2023/10/08 12:38:22;;;;;;;6.75;1.00;;;;;;;;;;5129286;27;41737;-68
2023/10/08 12:40:52;;;;;;;3.35;1.10;;;;;;;;;;5131384;27;43365;-68
2023/10/08 12:43:21;;;;;;;1.83;1.05;;;;;;;;;;5130189;27;40386;-67
2023/10/08 12:45:52;;;;;;;2.15;1.00;;;;;;;;;;5131827;27;41592;-68
2023/10/08 12:48:24;;;;;;;5.35;1.45;;;;;;;;;;5130608;27;41741;-68
2023/10/08 12:50:56;;;;;;;1.85;1.00;;;;;;;;;;5114627;27;42363;-68
2023/10/08 12:53:26;;;;;;;3.30;1.00;;;;;;;;;;5132022;27;41922;-68
2023/10/08 12:55:56;;;;;;;3.10;0.93;;;;;;;;;;5132086;27;40637;-68
2023/10/08 12:58:25;;;;;;;1.33;0.90;;;;;;;;;;5131899;27;42225;-71
2023/10/08 13:00:57;;;;;;;1.63;0.77;;;;;;;;;;5130218;27;43902;-68
2023/10/08 13:03:31;;;;;;;0.82;0.57;;;;;;;;;;5131138;27;38542;-68
2023/10/08 13:06:04;;;;;;;0.93;0.70;;;;;;;;;;5130346;27;41280;-68
2023/10/08 13:08:35;;;;;;;1.45;0.50;;;;;;;;;;5131601;27;40149;-68
2023/10/08 13:11:04;;;;;;;1.52;0.70;;;;;;;;;;5132330;27;42571;-68
2023/10/08 13:13:33;;;;;;;2.05;0.70;;;;;;;;;;5130093;27;44279;-68
2023/10/08 13:16:07;;;;;;;1.13;0.60;;;;;;;;;;5131951;27;40021;-69
2023/10/08 13:18:37;;;;;;;3.35;0.63;;;;;;;;;;5129693;27;42295;-68
2023/10/08 13:21:06;;;;;;;1.88;0.70;;;;;;;;;;5130297;27;42052;-68
2023/10/08 13:23:35;;;;;;;1.40;0.70;;;;;;;;;;5132588;27;40365;-68
2023/10/08 13:26:06;;;;;;;1.70;0.70;;;;;;;;;;5131391;27;43241;-69
2023/10/08 13:28:35;;;;;;;3.83;0.80;;;;;;;;;;5131963;27;42926;-68
2023/10/08 13:31:09;;;;;;;2.13;0.82;;;;;;;;;;5131480;27;41571;-68
2023/10/08 13:33:42;;;;;;;1.27;0.60;;;;;;;;;;5130509;27;42903;-68
2023/10/08 13:36:10;;;;;;;16.00;1.42;;;;;;;;;;5131922;27;41266;-68
2023/10/08 13:38:46;;;;;;;4.30;1.00;;;;;;;;;;5115237;27;40678;-69
2023/10/08 13:41:18;;;;;;;17.70;1.70;;;;;;;;;;5122106;27;42248;-68
2023/10/08 13:43:46;;;;;;;10.82;1.00;;;;;;;;;;5131192;27;41953;-68
2023/10/08 13:46:15;;;;;;;4.47;0.80;;;;;;;;;;5131810;27;42078;-68
2023/10/08 13:48:47;;;;;;;6.70;1.23;;;;;;;;;;5130049;27;43188;-68
2023/10/08 13:51:20;;;;;;;16.42;1.40;;;;;;;;;;5129377;27;40632;-68
2023/10/08 13:53:52;;;;;;;9.18;0.98;;;;;;;;;;5127749;27;41715;-67
2023/10/08 13:56:24;;;;;;;6.22;0.95;;;;;;;;;;5130586;27;41235;-68
2023/10/08 13:58:56;;;;;;;8.30;1.08;;;;;;;;;;5127896;27;41798;-68
2023/10/08 14:01:25;;;;;;;5.30;0.98;;;;;;;;;;5130354;27;43400;-68
2023/10/08 14:04:04;;;;;;;3.38;0.75;;;;;;;;;;5130616;27;39890;-68
2023/10/08 14:06:32;;;;;;;3.33;0.80;;;;;;;;;;5127065;27;41618;-68
2023/10/08 14:09:00;;;;;;;3.28;0.85;;;;;;;;;;5129995;27;43321;-68
2023/10/08 14:11:30;;;;;;;3.75;0.88;;;;;;;;;;5131076;27;40231;-68
2023/10/08 14:14:02;;;;;;;4.72;0.73;;;;;;;;;;5129709;27;42154;-68
2023/10/08 14:16:32;;;;;;;4.45;0.90;;;;;;;;;;5126814;27;41244;-68
2023/10/08 14:19:04;;;;;;;3.10;0.82;;;;;;;;;;5129619;27;42215;-68
2023/10/08 14:21:36;;;;;;;1.83;0.70;;;;;;;;;;5128924;27;41966;-68
2023/10/08 14:24:05;;;;;;;4.63;1.10;;;;;;;;;;5129468;27;39744;-68
2023/10/08 14:26:36;;;;;;;4.22;1.02;;;;;;;;;;5129865;27;42805;-68
2023/10/08 14:29:08;;;;;;;1.70;0.52;;;;;;;;;;5129656;27;41796;-68
2023/10/08 14:31:38;;;;;;;6.70;0.95;;;;;;;;;;5125504;27;41623;-68
2023/10/08 14:34:19;;;;;;;3.17;0.70;;;;;;;;;;5129135;27;41718;-68
2023/10/08 14:45:05;;;;;;;2.33;0.90;;;;;;;;;;5120646;27;41164;-70
2023/10/08 14:47:34;;;;;;;4.07;1.02;;;;;;;;;;5125005;27;41812;-70
2023/10/08 14:50:05;;;;;;;3.40;0.60;;;;;;;;;;5119550;27;42729;-69
2023/10/08 14:52:33;;;;;;;4.35;1.25;;;;;;;;;;5115494;27;40291;-69
2023/10/08 14:55:01;;;;;;;6.63;1.10;;;;;;;;;;5113211;27;41465;-68
2023/10/08 14:57:29;;;;;;;3.05;0.75;;;;;;;;;;5127754;27;42028;-68
2023/10/08 14:59:57;;;;;;;2.08;0.80;;;;;;;;;;5128940;27;41043;-68
2023/10/08 15:02:29;;;;;;;3.85;1.08;;;;;;;;;;5129288;27;43118;-68
2023/10/08 15:04:57;;;;;;;6.65;1.00;;;;;;;;;;5123858;27;39848;-69
2023/10/08 15:07:27;;;;;;;6.68;1.10;;;;;;;;;;5123117;27;41576;-69
2023/10/08 15:09:57;;;;;;;8.32;0.98;;;;;;;;;;5129642;27;43145;-67
2023/10/08 15:12:25;;;;;;;11.40;1.02;;;;;;;;;;5129029;27;39902;-68
2023/10/08 15:14:53;;;;;;;7.45;0.95;;;;;;;;;;5124488;27;42130;-68
2023/10/08 15:17:22;;;;;;;13.00;0.95;;;;;;;;;;5130150;27;43325;-68
2023/10/08 15:19:54;;;;;;;12.45;1.10;;;;;;;;;;5119544;27;40970;-68
2023/10/08 15:22:23;;;;;;;6.03;1.00;;;;;;;;;;5123958;27;43394;-68
2023/10/08 15:24:52;;;;;;;8.93;1.55;;;;;;;;;;5128674;27;40697;-68
2023/10/08 15:27:20;;;;;;;4.32;1.02;;;;;;;;;;5129317;27;41442;-68
2023/10/08 15:29:48;;;;;;;11.40;1.48;;;;;;;;;;5117806;27;42373;-68
2023/10/08 15:32:17;;;;;;;3.08;0.73;;;;;;;;;;5122431;27;40414;-69
2023/10/08 15:34:45;;;;;;;5.85;1.02;;;;;;;;;;5113704;27;41834;-71
2023/10/08 15:37:17;;;;;;;7.57;1.13;;;;;;;;;;5114789;27;41973;-69
2023/10/08 15:39:46;;;;;;;2.75;0.73;;;;;;;;;;5121377;27;40506;-69
2023/10/08 15:42:18;;;;;;;8.02;0.70;;;;;;;;;;5125561;27;41397;-69
2023/10/08 15:44:45;;;;;;;6.68;0.95;;;;;;;;;;5125944;27;41254;-68